sensor_id;sensor_type;location;lat;lon;timestamp;P1;durP1;ratioP1;P2;durP2;ratioP2
71975;SDS011;60680;52.182;5.398;2022-12-10T00:01:33;33.65;;;11.82;;
71975;SDS011;60680;52.182;5.398;2022-12-10T00:04:00;31.25;;;10.80;;
71975;SDS011;60680;52.182;5.398;2022-12-10T00:06:28;35.83;;;11.73;;
71975;SDS011;60680;52.182;5.398;2022-12-10T00:08:56;37.60;;;12.90;;
71975;SDS011;60680;52.182;5.398;2022-12-10T00:11:23;39.92;;;13.23;;
71975;SDS011;60680;52.182;5.398;2022-12-10T00:13:50;42.03;;;14.23;;
71975;SDS011;60680;52.182;5.398;2022-12-10T00:16:18;34.30;;;12.38;;
71975;SDS011;60680;52.182;5.398;2022-12-10T00:18:46;40.23;;;12.07;;
71975;SDS011;60680;52.182;5.398;2022-12-10T00:21:14;34.80;;;11.48;;
71975;SDS011;60680;52.182;5.398;2022-12-10T00:23:44;37.17;;;11.73;;
71975;SDS011;60680;52.182;5.398;2022-12-10T00:26:12;35.97;;;12.88;;
71975;SDS011;60680;52.182;5.398;2022-12-10T00:28:42;36.10;;;12.20;;
71975;SDS011;60680;52.182;5.398;2022-12-10T00:31:11;39.80;;;12.67;;
71975;SDS011;60680;52.182;5.398;2022-12-10T00:33:39;37.47;;;12.30;;
71975;SDS011;60680;52.182;5.398;2022-12-10T00:36:08;35.05;;;11.25;;
71975;SDS011;60680;52.182;5.398;2022-12-10T00:38:36;35.97;;;11.38;;
71975;SDS011;60680;52.182;5.398;2022-12-10T00:41:04;42.95;;;13.55;;
71975;SDS011;60680;52.182;5.398;2022-12-10T00:43:30;39.53;;;11.97;;
71975;SDS011;60680;52.182;5.398;2022-12-10T00:45:57;37.33;;;13.43;;
71975;SDS011;60680;52.182;5.398;2022-12-10T00:48:24;39.05;;;12.35;;
71975;SDS011;60680;52.182;5.398;2022-12-10T00:51:11;39.88;;;12.25;;
71975;SDS011;60680;52.182;5.398;2022-12-10T00:53:39;38.40;;;13.20;;
71975;SDS011;60680;52.182;5.398;2022-12-10T00:56:07;39.83;;;12.53;;
71975;SDS011;60680;52.182;5.398;2022-12-10T00:58:35;38.67;;;11.93;;
71975;SDS011;60680;52.182;5.398;2022-12-10T01:01:13;42.13;;;13.05;;
71975;SDS011;60680;52.182;5.398;2022-12-10T01:03:46;38.42;;;11.77;;
71975;SDS011;60680;52.182;5.398;2022-12-10T01:06:37;48.63;;;13.00;;
71975;SDS011;60680;52.182;5.398;2022-12-10T01:09:04;37.33;;;12.63;;
71975;SDS011;60680;52.182;5.398;2022-12-10T01:11:35;38.55;;;12.68;;
71975;SDS011;60680;52.182;5.398;2022-12-10T01:14:04;36.35;;;12.05;;
71975;SDS011;60680;52.182;5.398;2022-12-10T01:16:32;40.25;;;11.90;;
71975;SDS011;60680;52.182;5.398;2022-12-10T01:18:59;37.73;;;11.17;;
71975;SDS011;60680;52.182;5.398;2022-12-10T01:21:27;37.80;;;11.52;;
71975;SDS011;60680;52.182;5.398;2022-12-10T01:23:55;40.72;;;12.50;;
71975;SDS011;60680;52.182;5.398;2022-12-10T01:26:23;40.35;;;12.93;;
71975;SDS011;60680;52.182;5.398;2022-12-10T01:28:52;36.00;;;11.90;;
71975;SDS011;60680;52.182;5.398;2022-12-10T01:31:20;38.70;;;12.43;;
71975;SDS011;60680;52.182;5.398;2022-12-10T01:33:49;37.97;;;12.75;;
71975;SDS011;60680;52.182;5.398;2022-12-10T01:36:18;39.50;;;12.18;;
71975;SDS011;60680;52.182;5.398;2022-12-10T01:38:48;39.63;;;13.70;;
71975;SDS011;60680;52.182;5.398;2022-12-10T01:41:16;34.47;;;11.55;;
71975;SDS011;60680;52.182;5.398;2022-12-10T01:43:53;40.80;;;12.27;;
71975;SDS011;60680;52.182;5.398;2022-12-10T01:46:27;38.38;;;11.55;;
71975;SDS011;60680;52.182;5.398;2022-12-10T01:48:56;42.58;;;13.38;;
71975;SDS011;60680;52.182;5.398;2022-12-10T01:51:25;38.03;;;12.05;;
71975;SDS011;60680;52.182;5.398;2022-12-10T01:53:54;42.40;;;13.35;;
71975;SDS011;60680;52.182;5.398;2022-12-10T01:56:21;45.10;;;13.67;;
71975;SDS011;60680;52.182;5.398;2022-12-10T01:58:49;40.10;;;13.10;;
71975;SDS011;60680;52.182;5.398;2022-12-10T02:09:38;41.47;;;12.87;;
71975;SDS011;60680;52.182;5.398;2022-12-10T02:15:02;37.58;;;12.80;;
71975;SDS011;60680;52.182;5.398;2022-12-10T02:17:41;39.65;;;11.82;;
71975;SDS011;60680;52.182;5.398;2022-12-10T02:20:24;39.05;;;12.00;;
71975;SDS011;60680;52.182;5.398;2022-12-10T02:22:55;37.80;;;11.77;;
71975;SDS011;60680;52.182;5.398;2022-12-10T02:28:17;42.28;;;12.43;;
71975;SDS011;60680;52.182;5.398;2022-12-10T02:30:50;35.67;;;11.50;;
71975;SDS011;60680;52.182;5.398;2022-12-10T02:33:18;39.83;;;12.15;;
71975;SDS011;60680;52.182;5.398;2022-12-10T02:35:48;38.07;;;11.80;;
71975;SDS011;60680;52.182;5.398;2022-12-10T02:38:19;36.30;;;10.77;;
71975;SDS011;60680;52.182;5.398;2022-12-10T02:40:53;44.33;;;12.73;;
71975;SDS011;60680;52.182;5.398;2022-12-10T02:43:24;42.13;;;12.75;;
71975;SDS011;60680;52.182;5.398;2022-12-10T02:45:52;44.75;;;13.00;;
71975;SDS011;60680;52.182;5.398;2022-12-10T02:48:20;43.10;;;11.90;;
71975;SDS011;60680;52.182;5.398;2022-12-10T02:50:46;45.28;;;12.73;;
71975;SDS011;60680;52.182;5.398;2022-12-10T02:53:13;40.10;;;12.18;;
71975;SDS011;60680;52.182;5.398;2022-12-10T03:01:49;41.90;;;11.23;;
71975;SDS011;60680;52.182;5.398;2022-12-10T03:07:10;42.22;;;11.38;;
71975;SDS011;60680;52.182;5.398;2022-12-10T03:09:45;44.05;;;11.70;;
71975;SDS011;60680;52.182;5.398;2022-12-10T03:12:21;45.10;;;12.52;;
71975;SDS011;60680;52.182;5.398;2022-12-10T03:14:54;44.10;;;13.07;;
71975;SDS011;60680;52.182;5.398;2022-12-10T03:17:25;37.90;;;11.70;;
71975;SDS011;60680;52.182;5.398;2022-12-10T03:19:54;41.28;;;12.18;;
71975;SDS011;60680;52.182;5.398;2022-12-10T03:22:21;38.38;;;11.43;;
71975;SDS011;60680;52.182;5.398;2022-12-10T03:24:48;44.47;;;11.93;;
71975;SDS011;60680;52.182;5.398;2022-12-10T03:27:16;39.50;;;10.33;;
71975;SDS011;60680;52.182;5.398;2022-12-10T03:29:47;40.33;;;10.60;;
71975;SDS011;60680;52.182;5.398;2022-12-10T03:32:16;41.38;;;11.05;;
71975;SDS011;60680;52.182;5.398;2022-12-10T03:34:46;40.05;;;10.57;;
71975;SDS011;60680;52.182;5.398;2022-12-10T03:37:14;36.53;;;10.05;;
71975;SDS011;60680;52.182;5.398;2022-12-10T03:39:41;45.63;;;12.23;;
71975;SDS011;60680;52.182;5.398;2022-12-10T03:42:08;37.63;;;11.32;;
71975;SDS011;60680;52.182;5.398;2022-12-10T03:44:36;34.50;;;11.15;;
71975;SDS011;60680;52.182;5.398;2022-12-10T03:47:05;34.35;;;11.55;;
71975;SDS011;60680;52.182;5.398;2022-12-10T03:49:34;37.40;;;11.43;;
71975;SDS011;60680;52.182;5.398;2022-12-10T03:54:54;34.25;;;10.15;;
71975;SDS011;60680;52.182;5.398;2022-12-10T03:57:20;41.17;;;10.07;;
71975;SDS011;60680;52.182;5.398;2022-12-10T03:59:47;33.60;;;10.18;;
71975;SDS011;60680;52.182;5.398;2022-12-10T04:02:14;38.40;;;11.05;;
71975;SDS011;60680;52.182;5.398;2022-12-10T04:04:40;43.40;;;10.77;;
71975;SDS011;60680;52.182;5.398;2022-12-10T04:07:07;38.80;;;9.88;;
71975;SDS011;60680;52.182;5.398;2022-12-10T04:09:34;44.08;;;9.80;;
71975;SDS011;60680;52.182;5.398;2022-12-10T04:12:00;35.75;;;9.85;;
71975;SDS011;60680;52.182;5.398;2022-12-10T04:14:27;41.08;;;9.75;;
71975;SDS011;60680;52.182;5.398;2022-12-10T04:17:13;35.33;;;11.00;;
71975;SDS011;60680;52.182;5.398;2022-12-10T04:19:39;43.53;;;11.18;;
71975;SDS011;60680;52.182;5.398;2022-12-10T04:22:06;40.03;;;10.20;;
71975;SDS011;60680;52.182;5.398;2022-12-10T04:24:51;43.25;;;9.55;;
71975;SDS011;60680;52.182;5.398;2022-12-10T04:27:37;35.70;;;9.65;;
71975;SDS011;60680;52.182;5.398;2022-12-10T04:30:06;30.17;;;9.80;;
71975;SDS011;60680;52.182;5.398;2022-12-10T04:32:34;32.08;;;9.38;;
71975;SDS011;60680;52.182;5.398;2022-12-10T04:35:01;33.50;;;9.13;;
71975;SDS011;60680;52.182;5.398;2022-12-10T04:37:28;33.63;;;10.38;;
71975;SDS011;60680;52.182;5.398;2022-12-10T04:39:54;29.30;;;9.32;;
71975;SDS011;60680;52.182;5.398;2022-12-10T04:42:21;34.85;;;9.98;;
71975;SDS011;60680;52.182;5.398;2022-12-10T04:44:48;43.38;;;10.15;;
71975;SDS011;60680;52.182;5.398;2022-12-10T04:47:15;31.65;;;9.32;;
71975;SDS011;60680;52.182;5.398;2022-12-10T04:49:42;38.42;;;9.45;;
71975;SDS011;60680;52.182;5.398;2022-12-10T04:52:10;28.70;;;7.73;;
71975;SDS011;60680;52.182;5.398;2022-12-10T04:54:38;35.53;;;8.30;;
71975;SDS011;60680;52.182;5.398;2022-12-10T04:57:07;36.25;;;9.77;;
71975;SDS011;60680;52.182;5.398;2022-12-10T04:59:34;34.83;;;9.07;;
71975;SDS011;60680;52.182;5.398;2022-12-10T05:02:03;39.40;;;10.63;;
71975;SDS011;60680;52.182;5.398;2022-12-10T05:04:30;31.63;;;10.53;;
71975;SDS011;60680;52.182;5.398;2022-12-10T05:06:57;38.20;;;11.32;;
71975;SDS011;60680;52.182;5.398;2022-12-10T05:09:24;44.35;;;10.60;;
71975;SDS011;60680;52.182;5.398;2022-12-10T05:11:51;35.83;;;10.38;;
71975;SDS011;60680;52.182;5.398;2022-12-10T05:14:17;31.73;;;9.82;;
71975;SDS011;60680;52.182;5.398;2022-12-10T05:16:44;28.67;;;9.60;;
71975;SDS011;60680;52.182;5.398;2022-12-10T05:19:11;30.95;;;9.43;;
71975;SDS011;60680;52.182;5.398;2022-12-10T05:21:37;34.13;;;9.20;;
71975;SDS011;60680;52.182;5.398;2022-12-10T05:24:22;35.15;;;10.45;;
71975;SDS011;60680;52.182;5.398;2022-12-10T05:26:51;30.92;;;11.15;;
71975;SDS011;60680;52.182;5.398;2022-12-10T05:29:18;37.60;;;10.90;;
71975;SDS011;60680;52.182;5.398;2022-12-10T05:31:45;45.13;;;11.45;;
71975;SDS011;60680;52.182;5.398;2022-12-10T05:34:12;42.78;;;11.13;;
71975;SDS011;60680;52.182;5.398;2022-12-10T05:36:38;36.63;;;9.77;;
71975;SDS011;60680;52.182;5.398;2022-12-10T05:39:05;36.95;;;10.07;;
71975;SDS011;60680;52.182;5.398;2022-12-10T05:41:37;39.80;;;11.37;;
71975;SDS011;60680;52.182;5.398;2022-12-10T05:44:05;38.58;;;10.65;;
71975;SDS011;60680;52.182;5.398;2022-12-10T05:46:34;34.30;;;10.75;;
71975;SDS011;60680;52.182;5.398;2022-12-10T05:49:02;32.60;;;10.20;;
71975;SDS011;60680;52.182;5.398;2022-12-10T05:51:30;31.80;;;10.77;;
71975;SDS011;60680;52.182;5.398;2022-12-10T05:53:59;36.60;;;11.03;;
71975;SDS011;60680;52.182;5.398;2022-12-10T05:56:27;28.58;;;9.77;;
71975;SDS011;60680;52.182;5.398;2022-12-10T05:58:56;32.83;;;10.80;;
71975;SDS011;60680;52.182;5.398;2022-12-10T06:01:26;36.55;;;10.23;;
71975;SDS011;60680;52.182;5.398;2022-12-10T06:03:54;44.10;;;11.57;;
71975;SDS011;60680;52.182;5.398;2022-12-10T06:06:23;38.43;;;11.70;;
71975;SDS011;60680;52.182;5.398;2022-12-10T06:08:53;40.05;;;12.93;;
71975;SDS011;60680;52.182;5.398;2022-12-10T06:11:20;34.80;;;11.10;;
71975;SDS011;60680;52.182;5.398;2022-12-10T06:13:47;40.22;;;11.20;;
71975;SDS011;60680;52.182;5.398;2022-12-10T06:16:21;43.28;;;12.10;;
71975;SDS011;60680;52.182;5.398;2022-12-10T06:18:48;36.13;;;12.27;;
71975;SDS011;60680;52.182;5.398;2022-12-10T06:21:16;38.03;;;10.73;;
71975;SDS011;60680;52.182;5.398;2022-12-10T06:23:43;40.25;;;10.77;;
71975;SDS011;60680;52.182;5.398;2022-12-10T06:26:12;39.60;;;12.13;;
71975;SDS011;60680;52.182;5.398;2022-12-10T06:28:41;39.20;;;11.77;;
71975;SDS011;60680;52.182;5.398;2022-12-10T06:31:10;34.90;;;10.40;;
71975;SDS011;60680;52.182;5.398;2022-12-10T06:33:37;36.10;;;10.15;;
71975;SDS011;60680;52.182;5.398;2022-12-10T06:36:07;37.65;;;12.05;;
71975;SDS011;60680;52.182;5.398;2022-12-10T06:38:35;32.17;;;10.15;;
71975;SDS011;60680;52.182;5.398;2022-12-10T06:41:07;38.10;;;10.70;;
71975;SDS011;60680;52.182;5.398;2022-12-10T06:43:35;32.33;;;10.00;;
71975;SDS011;60680;52.182;5.398;2022-12-10T06:46:05;29.95;;;9.82;;
71975;SDS011;60680;52.182;5.398;2022-12-10T06:48:33;30.83;;;8.50;;
71975;SDS011;60680;52.182;5.398;2022-12-10T06:51:02;34.67;;;9.80;;
71975;SDS011;60680;52.182;5.398;2022-12-10T06:53:30;29.10;;;8.97;;
71975;SDS011;60680;52.182;5.398;2022-12-10T06:55:58;26.50;;;9.20;;
71975;SDS011;60680;52.182;5.398;2022-12-10T06:58:29;29.23;;;9.45;;
71975;SDS011;60680;52.182;5.398;2022-12-10T07:01:03;29.25;;;9.07;;
71975;SDS011;60680;52.182;5.398;2022-12-10T07:03:33;32.53;;;9.52;;
71975;SDS011;60680;52.182;5.398;2022-12-10T07:06:00;31.97;;;10.27;;
71975;SDS011;60680;52.182;5.398;2022-12-10T07:08:27;31.60;;;10.23;;
71975;SDS011;60680;52.182;5.398;2022-12-10T07:10:54;35.08;;;9.73;;
71975;SDS011;60680;52.182;5.398;2022-12-10T07:13:22;34.88;;;10.88;;
71975;SDS011;60680;52.182;5.398;2022-12-10T07:15:55;32.90;;;10.60;;
71975;SDS011;60680;52.182;5.398;2022-12-10T07:18:22;30.43;;;9.20;;
71975;SDS011;60680;52.182;5.398;2022-12-10T07:20:49;35.50;;;11.05;;
71975;SDS011;60680;52.182;5.398;2022-12-10T07:23:15;38.35;;;11.32;;
71975;SDS011;60680;52.182;5.398;2022-12-10T07:25:42;34.80;;;10.57;;
71975;SDS011;60680;52.182;5.398;2022-12-10T07:28:08;41.03;;;10.70;;
71975;SDS011;60680;52.182;5.398;2022-12-10T07:30:35;35.60;;;10.90;;
71975;SDS011;60680;52.182;5.398;2022-12-10T07:33:01;31.70;;;9.65;;
71975;SDS011;60680;52.182;5.398;2022-12-10T07:35:28;37.53;;;11.30;;
71975;SDS011;60680;52.182;5.398;2022-12-10T07:37:55;40.22;;;11.85;;
71975;SDS011;60680;52.182;5.398;2022-12-10T07:40:22;38.67;;;11.13;;
71975;SDS011;60680;52.182;5.398;2022-12-10T07:42:48;32.73;;;10.40;;
71975;SDS011;60680;52.182;5.398;2022-12-10T07:45:15;27.90;;;9.48;;
71975;SDS011;60680;52.182;5.398;2022-12-10T07:47:41;41.65;;;11.15;;
71975;SDS011;60680;52.182;5.398;2022-12-10T07:50:08;34.35;;;10.57;;
71975;SDS011;60680;52.182;5.398;2022-12-10T07:52:35;32.35;;;10.60;;
71975;SDS011;60680;52.182;5.398;2022-12-10T07:55:02;35.60;;;10.73;;
71975;SDS011;60680;52.182;5.398;2022-12-10T07:57:29;32.80;;;9.95;;
71975;SDS011;60680;52.182;5.398;2022-12-10T07:59:56;37.50;;;10.23;;
71975;SDS011;60680;52.182;5.398;2022-12-10T08:02:24;39.53;;;10.70;;
71975;SDS011;60680;52.182;5.398;2022-12-10T08:04:51;35.65;;;10.32;;
71975;SDS011;60680;52.182;5.398;2022-12-10T08:07:17;45.40;;;10.80;;
71975;SDS011;60680;52.182;5.398;2022-12-10T08:09:44;41.20;;;10.43;;
71975;SDS011;60680;52.182;5.398;2022-12-10T08:12:10;33.50;;;9.50;;
71975;SDS011;60680;52.182;5.398;2022-12-10T08:14:37;36.85;;;10.77;;
71975;SDS011;60680;52.182;5.398;2022-12-10T08:17:03;35.47;;;10.43;;
71975;SDS011;60680;52.182;5.398;2022-12-10T08:19:30;36.43;;;10.50;;
71975;SDS011;60680;52.182;5.398;2022-12-10T08:21:57;45.13;;;11.93;;
71975;SDS011;60680;52.182;5.398;2022-12-10T08:24:23;37.55;;;10.30;;
71975;SDS011;60680;52.182;5.398;2022-12-10T08:26:50;34.45;;;10.07;;
71975;SDS011;60680;52.182;5.398;2022-12-10T08:29:16;39.33;;;11.38;;
71975;SDS011;60680;52.182;5.398;2022-12-10T08:31:43;42.20;;;12.00;;
71975;SDS011;60680;52.182;5.398;2022-12-10T08:34:13;36.20;;;10.48;;
71975;SDS011;60680;52.182;5.398;2022-12-10T08:36:42;40.92;;;11.80;;
71975;SDS011;60680;52.182;5.398;2022-12-10T08:39:09;31.48;;;10.70;;
71975;SDS011;60680;52.182;5.398;2022-12-10T08:41:36;38.33;;;11.07;;
71975;SDS011;60680;52.182;5.398;2022-12-10T08:44:03;32.63;;;10.03;;
71975;SDS011;60680;52.182;5.398;2022-12-10T08:46:29;39.72;;;9.68;;
71975;SDS011;60680;52.182;5.398;2022-12-10T08:48:56;34.20;;;10.43;;
71975;SDS011;60680;52.182;5.398;2022-12-10T08:51:23;37.20;;;10.65;;
71975;SDS011;60680;52.182;5.398;2022-12-10T08:53:50;38.63;;;10.73;;
71975;SDS011;60680;52.182;5.398;2022-12-10T08:56:16;34.70;;;10.93;;
71975;SDS011;60680;52.182;5.398;2022-12-10T08:58:43;36.88;;;10.55;;
71975;SDS011;60680;52.182;5.398;2022-12-10T09:01:10;36.67;;;10.95;;
71975;SDS011;60680;52.182;5.398;2022-12-10T09:03:39;31.63;;;9.68;;
71975;SDS011;60680;52.182;5.398;2022-12-10T09:06:06;33.65;;;9.68;;
71975;SDS011;60680;52.182;5.398;2022-12-10T09:08:35;33.20;;;9.17;;
71975;SDS011;60680;52.182;5.398;2022-12-10T09:11:22;34.22;;;9.65;;
71975;SDS011;60680;52.182;5.398;2022-12-10T09:13:50;41.03;;;10.85;;
71975;SDS011;60680;52.182;5.398;2022-12-10T09:16:18;38.45;;;11.38;;
71975;SDS011;60680;52.182;5.398;2022-12-10T09:18:45;36.47;;;10.80;;
71975;SDS011;60680;52.182;5.398;2022-12-10T09:21:13;36.17;;;10.30;;
71975;SDS011;60680;52.182;5.398;2022-12-10T09:23:42;34.80;;;10.60;;
71975;SDS011;60680;52.182;5.398;2022-12-10T09:26:10;37.35;;;10.48;;
71975;SDS011;60680;52.182;5.398;2022-12-10T09:28:39;40.50;;;11.13;;
71975;SDS011;60680;52.182;5.398;2022-12-10T09:31:06;32.25;;;9.82;;
71975;SDS011;60680;52.182;5.398;2022-12-10T09:33:40;35.20;;;9.60;;
71975;SDS011;60680;52.182;5.398;2022-12-10T09:36:08;34.85;;;10.25;;
71975;SDS011;60680;52.182;5.398;2022-12-10T09:38:37;34.28;;;10.82;;
71975;SDS011;60680;52.182;5.398;2022-12-10T09:44:07;31.08;;;9.00;;
71975;SDS011;60680;52.182;5.398;2022-12-10T09:46:48;37.13;;;9.90;;
71975;SDS011;60680;52.182;5.398;2022-12-10T09:51:58;28.75;;;9.00;;
71975;SDS011;60680;52.182;5.398;2022-12-10T09:54:31;29.88;;;9.20;;
71975;SDS011;60680;52.182;5.398;2022-12-10T09:57:00;33.47;;;9.30;;
71975;SDS011;60680;52.182;5.398;2022-12-10T09:59:48;34.10;;;9.53;;
71975;SDS011;60680;52.182;5.398;2022-12-10T10:02:23;31.42;;;9.52;;
71975;SDS011;60680;52.182;5.398;2022-12-10T10:04:52;28.95;;;8.93;;
71975;SDS011;60680;52.182;5.398;2022-12-10T10:07:26;31.80;;;9.45;;
71975;SDS011;60680;52.182;5.398;2022-12-10T10:09:58;27.55;;;8.95;;
71975;SDS011;60680;52.182;5.398;2022-12-10T10:12:27;29.40;;;8.30;;
71975;SDS011;60680;52.182;5.398;2022-12-10T10:14:56;33.08;;;8.90;;
71975;SDS011;60680;52.182;5.398;2022-12-10T10:17:26;35.10;;;10.25;;
71975;SDS011;60680;52.182;5.398;2022-12-10T10:19:59;31.80;;;9.43;;
71975;SDS011;60680;52.182;5.398;2022-12-10T10:22:25;35.88;;;8.75;;
71975;SDS011;60680;52.182;5.398;2022-12-10T10:24:52;23.90;;;7.60;;
71975;SDS011;60680;52.182;5.398;2022-12-10T10:27:26;29.80;;;8.13;;
71975;SDS011;60680;52.182;5.398;2022-12-10T10:29:56;26.95;;;7.90;;
71975;SDS011;60680;52.182;5.398;2022-12-10T10:32:25;34.55;;;8.88;;
71975;SDS011;60680;52.182;5.398;2022-12-10T10:34:55;22.80;;;8.18;;
71975;SDS011;60680;52.182;5.398;2022-12-10T10:39:59;30.88;;;9.43;;
71975;SDS011;60680;52.182;5.398;2022-12-10T10:45:03;29.98;;;8.63;;
71975;SDS011;60680;52.182;5.398;2022-12-10T10:47:33;29.25;;;9.27;;
71975;SDS011;60680;52.182;5.398;2022-12-10T10:50:04;28.80;;;8.97;;
71975;SDS011;60680;52.182;5.398;2022-12-10T10:52:35;36.65;;;9.27;;
71975;SDS011;60680;52.182;5.398;2022-12-10T10:55:03;29.90;;;8.00;;
71975;SDS011;60680;52.182;5.398;2022-12-10T10:57:34;31.42;;;9.30;;
71975;SDS011;60680;52.182;5.398;2022-12-10T11:00:07;29.80;;;8.48;;
71975;SDS011;60680;52.182;5.398;2022-12-10T11:02:48;41.03;;;8.67;;
71975;SDS011;60680;52.182;5.398;2022-12-10T11:07:42;32.20;;;8.43;;
71975;SDS011;60680;52.182;5.398;2022-12-10T11:15:32;34.83;;;8.80;;
71975;SDS011;60680;52.182;5.398;2022-12-10T11:18:22;32.17;;;8.25;;
71975;SDS011;60680;52.182;5.398;2022-12-10T11:21:01;32.08;;;7.72;;
71975;SDS011;60680;52.182;5.398;2022-12-10T11:23:31;33.63;;;9.23;;
71975;SDS011;60680;52.182;5.398;2022-12-10T11:34:14;24.50;;;7.18;;
71975;SDS011;60680;52.182;5.398;2022-12-10T11:36:53;28.05;;;7.65;;
71975;SDS011;60680;52.182;5.398;2022-12-10T11:44:47;27.67;;;8.63;;
71975;SDS011;60680;52.182;5.398;2022-12-10T11:47:34;26.10;;;7.10;;
71975;SDS011;60680;52.182;5.398;2022-12-10T11:50:23;28.17;;;7.00;;
71975;SDS011;60680;52.182;5.398;2022-12-10T11:56:52;25.83;;;7.53;;
71975;SDS011;60680;52.182;5.398;2022-12-10T11:59:12;24.52;;;7.82;;
71975;SDS011;60680;52.182;5.398;2022-12-10T12:04:49;28.08;;;8.05;;
71975;SDS011;60680;52.182;5.398;2022-12-10T12:07:32;30.93;;;8.47;;
71975;SDS011;60680;52.182;5.398;2022-12-10T12:10:14;23.75;;;7.20;;
71975;SDS011;60680;52.182;5.398;2022-12-10T12:13:16;27.77;;;7.43;;
71975;SDS011;60680;52.182;5.398;2022-12-10T12:18:44;26.38;;;7.78;;
71975;SDS011;60680;52.182;5.398;2022-12-10T12:21:16;21.10;;;7.17;;
71975;SDS011;60680;52.182;5.398;2022-12-10T12:26:38;29.63;;;7.85;;
71975;SDS011;60680;52.182;5.398;2022-12-10T12:29:16;27.90;;;7.85;;
71975;SDS011;60680;52.182;5.398;2022-12-10T12:31:57;24.15;;;7.82;;
71975;SDS011;60680;52.182;5.398;2022-12-10T12:34:33;28.83;;;8.97;;
71975;SDS011;60680;52.182;5.398;2022-12-10T12:37:11;26.02;;;8.02;;
71975;SDS011;60680;52.182;5.398;2022-12-10T12:39:46;20.60;;;7.07;;
71975;SDS011;60680;52.182;5.398;2022-12-10T12:42:22;30.02;;;8.00;;
71975;SDS011;60680;52.182;5.398;2022-12-10T12:45:03;29.02;;;8.50;;
71975;SDS011;60680;52.182;5.398;2022-12-10T12:47:39;28.57;;;8.20;;
71975;SDS011;60680;52.182;5.398;2022-12-10T12:50:37;41.65;;;15.57;;
71975;SDS011;60680;52.182;5.398;2022-12-10T12:53:01;29.33;;;10.00;;
71975;SDS011;60680;52.182;5.398;2022-12-10T12:55:31;31.50;;;9.57;;
71975;SDS011;60680;52.182;5.398;2022-12-10T13:00:51;32.33;;;8.53;;
71975;SDS011;60680;52.182;5.398;2022-12-10T13:03:31;33.22;;;9.43;;
71975;SDS011;60680;52.182;5.398;2022-12-10T13:06:11;28.25;;;8.45;;
71975;SDS011;60680;52.182;5.398;2022-12-10T13:14:29;26.70;;;8.60;;
71975;SDS011;60680;52.182;5.398;2022-12-10T13:16:59;35.67;;;9.73;;
71975;SDS011;60680;52.182;5.398;2022-12-10T13:19:27;31.33;;;8.57;;
71975;SDS011;60680;52.182;5.398;2022-12-10T13:30:00;32.88;;;9.35;;
71975;SDS011;60680;52.182;5.398;2022-12-10T13:42:59;31.58;;;9.23;;
71975;SDS011;60680;52.182;5.398;2022-12-10T13:48:56;31.30;;;8.20;;
71975;SDS011;60680;52.182;5.398;2022-12-10T13:51:33;34.70;;;9.25;;
71975;SDS011;60680;52.182;5.398;2022-12-10T13:56:55;28.17;;;8.90;;
71975;SDS011;60680;52.182;5.398;2022-12-10T13:59:41;34.70;;;10.10;;
71975;SDS011;60680;52.182;5.398;2022-12-10T14:02:19;37.13;;;9.88;;
71975;SDS011;60680;52.182;5.398;2022-12-10T14:05:27;33.95;;;9.25;;
71975;SDS011;60680;52.182;5.398;2022-12-10T14:08:06;31.70;;;9.67;;
71975;SDS011;60680;52.182;5.398;2022-12-10T14:10:40;27.67;;;9.02;;
71975;SDS011;60680;52.182;5.398;2022-12-10T14:13:10;28.65;;;8.00;;
71975;SDS011;60680;52.182;5.398;2022-12-10T14:15:39;32.42;;;7.95;;
71975;SDS011;60680;52.182;5.398;2022-12-10T14:18:11;32.70;;;8.65;;
71975;SDS011;60680;52.182;5.398;2022-12-10T14:20:41;36.50;;;9.13;;
71975;SDS011;60680;52.182;5.398;2022-12-10T14:23:25;40.42;;;10.60;;
71975;SDS011;60680;52.182;5.398;2022-12-10T14:26:04;30.55;;;8.50;;
71975;SDS011;60680;52.182;5.398;2022-12-10T14:28:32;31.88;;;9.25;;
71975;SDS011;60680;52.182;5.398;2022-12-10T14:31:02;30.55;;;7.97;;
71975;SDS011;60680;52.182;5.398;2022-12-10T14:33:29;37.67;;;9.13;;
71975;SDS011;60680;52.182;5.398;2022-12-10T14:35:55;37.85;;;9.38;;
71975;SDS011;60680;52.182;5.398;2022-12-10T14:38:27;34.63;;;8.57;;
71975;SDS011;60680;52.182;5.398;2022-12-10T14:40:58;33.92;;;8.30;;
71975;SDS011;60680;52.182;5.398;2022-12-10T14:43:30;30.08;;;8.02;;
71975;SDS011;60680;52.182;5.398;2022-12-10T14:46:03;31.67;;;8.97;;
71975;SDS011;60680;52.182;5.398;2022-12-10T14:48:35;29.13;;;8.25;;
71975;SDS011;60680;52.182;5.398;2022-12-10T14:51:15;33.13;;;8.63;;
71975;SDS011;60680;52.182;5.398;2022-12-10T14:53:45;31.75;;;9.10;;
71975;SDS011;60680;52.182;5.398;2022-12-10T14:56:16;29.73;;;7.78;;
71975;SDS011;60680;52.182;5.398;2022-12-10T14:58:53;32.50;;;7.33;;
71975;SDS011;60680;52.182;5.398;2022-12-10T15:01:41;31.35;;;9.10;;
71975;SDS011;60680;52.182;5.398;2022-12-10T15:04:12;37.72;;;9.50;;
71975;SDS011;60680;52.182;5.398;2022-12-10T15:06:40;33.42;;;9.38;;
71975;SDS011;60680;52.182;5.398;2022-12-10T15:09:22;34.42;;;9.02;;
71975;SDS011;60680;52.182;5.398;2022-12-10T15:11:54;32.73;;;9.00;;
71975;SDS011;60680;52.182;5.398;2022-12-10T15:14:22;34.80;;;8.98;;
71975;SDS011;60680;52.182;5.398;2022-12-10T15:16:50;39.55;;;9.35;;
71975;SDS011;60680;52.182;5.398;2022-12-10T15:22:15;37.67;;;10.00;;
71975;SDS011;60680;52.182;5.398;2022-12-10T15:24:45;39.00;;;9.17;;
71975;SDS011;60680;52.182;5.398;2022-12-10T15:29:43;32.72;;;8.60;;
71975;SDS011;60680;52.182;5.398;2022-12-10T15:32:13;42.75;;;11.15;;
71975;SDS011;60680;52.182;5.398;2022-12-10T15:34:46;35.10;;;9.35;;
71975;SDS011;60680;52.182;5.398;2022-12-10T15:37:16;38.97;;;9.83;;
71975;SDS011;60680;52.182;5.398;2022-12-10T15:39:46;36.05;;;10.18;;
71975;SDS011;60680;52.182;5.398;2022-12-10T15:45:20;39.85;;;11.07;;
71975;SDS011;60680;52.182;5.398;2022-12-10T15:47:56;41.67;;;11.90;;
71975;SDS011;60680;52.182;5.398;2022-12-10T15:50:25;36.97;;;11.03;;
71975;SDS011;60680;52.182;5.398;2022-12-10T15:55:30;39.42;;;9.85;;
71975;SDS011;60680;52.182;5.398;2022-12-10T15:57:56;38.15;;;9.77;;
71975;SDS011;60680;52.182;5.398;2022-12-10T16:00:24;34.97;;;9.15;;
71975;SDS011;60680;52.182;5.398;2022-12-10T16:02:59;37.43;;;9.33;;
71975;SDS011;60680;52.182;5.398;2022-12-10T16:05:32;47.85;;;10.02;;
71975;SDS011;60680;52.182;5.398;2022-12-10T16:08:23;32.33;;;9.15;;
71975;SDS011;60680;52.182;5.398;2022-12-10T16:10:56;37.58;;;10.85;;
71975;SDS011;60680;52.182;5.398;2022-12-10T16:13:30;38.30;;;9.90;;
71975;SDS011;60680;52.182;5.398;2022-12-10T16:16:06;38.57;;;8.87;;
71975;SDS011;60680;52.182;5.398;2022-12-10T16:18:35;38.63;;;10.27;;
71975;SDS011;60680;52.182;5.398;2022-12-10T16:21:03;43.42;;;9.57;;
71975;SDS011;60680;52.182;5.398;2022-12-10T16:23:31;36.42;;;9.40;;
71975;SDS011;60680;52.182;5.398;2022-12-10T16:25:58;35.45;;;9.00;;
71975;SDS011;60680;52.182;5.398;2022-12-10T16:28:26;40.37;;;9.90;;
71975;SDS011;60680;52.182;5.398;2022-12-10T16:30:54;38.35;;;9.98;;
71975;SDS011;60680;52.182;5.398;2022-12-10T16:33:23;43.15;;;10.65;;
71975;SDS011;60680;52.182;5.398;2022-12-10T16:35:51;33.38;;;8.57;;
71975;SDS011;60680;52.182;5.398;2022-12-10T16:38:19;33.50;;;8.18;;
71975;SDS011;60680;52.182;5.398;2022-12-10T16:40:46;35.63;;;9.03;;
71975;SDS011;60680;52.182;5.398;2022-12-10T16:43:21;46.40;;;10.63;;